Time;durP1;ratioP1;P1;durP2;ratioP2;P2;SDS_P1;SDS_P2;PMS_P1;PMS_P2;Temp;Humidity;BMP_temperature;BMP_pressure;BME280_temperature;BME280_humidity;BME280_pressure;Samples;Min_cycle;Max_cycle;Signal;HPM_P1;HPM_P2
2022/06/06 00:01:13;;;;;;;7.33;3.90;;;;;;;;;;5078973;28;20962;-85
2022/06/06 00:03:40;;;;;;;5.53;3.97;;;;;;;;;;5061518;28;20456;-87
2022/06/06 00:06:10;;;;;;;6.60;4.73;;;;;;;;;;5060261;28;20421;-86
2022/06/06 00:08:36;;;;;;;9.83;4.23;;;;;;;;;;5078494;28;20423;-88
2022/06/06 00:11:04;;;;;;;9.83;4.67;;;;;;;;;;5061443;28;20408;-86
2022/06/06 00:13:31;;;;;;;6.93;4.10;;;;;;;;;;5078673;28;20932;-87
2022/06/06 00:15:57;;;;;;;7.30;4.10;;;;;;;;;;5082898;28;20424;-86
2022/06/06 00:18:23;;;;;;;6.00;4.47;;;;;;;;;;5063772;28;20408;-87
2022/06/06 00:20:49;;;;;;;10.70;6.10;;;;;;;;;;5064756;28;20411;-86
2022/06/06 00:23:16;;;;;;;4.63;4.10;;;;;;;;;;5081953;28;20393;-86
2022/06/06 00:25:45;;;;;;;4.23;3.83;;;;;;;;;;5081552;28;20412;-87
2022/06/06 00:28:11;;;;;;;5.30;4.73;;;;;;;;;;5064929;28;20393;-86
2022/06/06 00:30:37;;;;;;;6.17;4.20;;;;;;;;;;5081313;28;20440;-86
2022/06/06 00:35:48;;;;;;;5.90;4.80;;;;;;;;;;5089414;28;20388;-86
2022/06/06 00:38:14;;;;;;;6.50;4.30;;;;;;;;;;5082545;28;20839;-86
2022/06/06 00:40:40;;;;;;;7.10;4.30;;;;;;;;;;5063711;28;20484;-87
2022/06/06 00:43:06;;;;;;;7.53;4.13;;;;;;;;;;5081085;28;20412;-86
2022/06/06 00:45:32;;;;;;;7.40;5.80;;;;;;;;;;5080942;28;20487;-85
2022/06/06 00:48:14;;;;;;;4.90;4.40;;;;;;;;;;5080536;28;20444;-85
2022/06/06 00:50:59;;;;;;;5.63;4.27;;;;;;;;;;5063221;28;20425;-85
2022/06/06 00:53:29;;;;;;;4.33;3.93;;;;;;;;;;5063903;28;20405;-86
2022/06/06 00:55:59;;;;;;;7.40;4.40;;;;;;;;;;5081706;28;20401;-86
2022/06/06 00:58:27;;;;;;;5.40;3.90;;;;;;;;;;5081133;28;20409;-85
2022/06/06 01:00:53;;;;;;;5.47;4.97;;;;;;;;;;5062902;28;20413;-86
2022/06/06 01:03:20;;;;;;;5.80;4.33;;;;;;;;;;5080234;28;20400;-86
2022/06/06 01:05:48;;;;;;;5.57;4.10;;;;;;;;;;5062645;28;20435;-86
2022/06/06 01:08:17;;;;;;;7.93;4.50;;;;;;;;;;5080955;28;20869;-86
2022/06/06 01:10:43;;;;;;;10.97;7.13;;;;;;;;;;5062601;28;20511;-85
2022/06/06 01:13:11;;;;;;;7.00;6.30;;;;;;;;;;5080315;28;20397;-87
2022/06/06 01:15:47;;;;;;;6.93;4.97;;;;;;;;;;5062446;28;20461;-86
2022/06/06 01:18:30;;;;;;;7.73;5.33;;;;;;;;;;5062777;28;20415;-86
2022/06/06 01:21:05;;;;;;;6.70;5.03;;;;;;;;;;5062000;28;20927;-86
2022/06/06 01:23:42;;;;;;;6.47;4.50;;;;;;;;;;5080845;28;20957;-86
2022/06/06 01:26:20;;;;;;;10.43;5.37;;;;;;;;;;5072945;28;20445;-86
2022/06/06 01:28:57;;;;;;;7.40;5.67;;;;;;;;;;5065435;28;20425;-87
2022/06/06 01:31:48;;;;;;;6.73;5.30;;;;;;;;;;5042662;28;20783;-87
2022/06/06 01:34:19;;;;;;;7.33;5.70;;;;;;;;;;5035436;28;20421;-85
2022/06/06 01:36:50;;;;;;;7.43;5.27;;;;;;;;;;5060454;28;20560;-86
2022/06/06 01:39:16;;;;;;;7.77;5.93;;;;;;;;;;5060110;28;20441;-86
2022/06/06 01:42:01;;;;;;;7.60;5.50;;;;;;;;;;5042178;28;20448;-87
2022/06/06 01:44:30;;;;;;;8.10;5.90;;;;;;;;;;5060968;28;20448;-87
2022/06/06 01:46:58;;;;;;;7.50;6.10;;;;;;;;;;5059879;28;20405;-86
2022/06/06 01:49:25;;;;;;;6.00;4.87;;;;;;;;;;5042083;28;20432;-87
2022/06/06 01:51:59;;;;;;;9.80;5.97;;;;;;;;;;5059379;28;20420;-86
2022/06/06 01:54:25;;;;;;;8.43;5.60;;;;;;;;;;5042025;28;20829;-85
2022/06/06 01:56:51;;;;;;;8.40;6.77;;;;;;;;;;5040829;28;20452;-85
2022/06/06 01:59:17;;;;;;;7.50;6.40;;;;;;;;;;5057084;28;20436;-85
2022/06/06 02:01:43;;;;;;;12.10;7.03;;;;;;;;;;5056943;28;20410;-84
2022/06/06 02:04:10;;;;;;;7.73;6.40;;;;;;;;;;5039364;28;20461;-85
2022/06/06 02:06:38;;;;;;;11.13;6.27;;;;;;;;;;5057722;28;20409;-85
2022/06/06 02:09:04;;;;;;;10.43;7.00;;;;;;;;;;5043378;28;20425;-85
2022/06/06 02:11:30;;;;;;;10.77;6.93;;;;;;;;;;5041279;28;20844;-87
2022/06/06 02:13:56;;;;;;;10.10;7.53;;;;;;;;;;5040305;28;20453;-86
2022/06/06 02:16:23;;;;;;;11.07;7.27;;;;;;;;;;5058517;28;20409;-87
2022/06/06 02:18:49;;;;;;;10.20;7.27;;;;;;;;;;5058404;28;20468;-86
2022/06/06 02:21:16;;;;;;;9.20;7.63;;;;;;;;;;5058285;28;20901;-87
2022/06/06 02:23:43;;;;;;;11.23;7.60;;;;;;;;;;5040759;28;20453;-87
2022/06/06 02:26:09;;;;;;;12.70;7.57;;;;;;;;;;5040640;28;20409;-87
2022/06/06 02:28:36;;;;;;;9.73;6.97;;;;;;;;;;5058268;28;21011;-86
2022/06/06 02:31:03;;;;;;;8.93;7.00;;;;;;;;;;5073723;28;20386;-84
2022/06/06 02:33:29;;;;;;;7.70;6.77;;;;;;;;;;5072266;28;20393;-87
2022/06/06 02:35:55;;;;;;;9.10;6.47;;;;;;;;;;5043924;28;20412;-87
2022/06/06 02:38:21;;;;;;;8.00;6.00;;;;;;;;;;5059290;28;20401;-87
2022/06/06 02:40:47;;;;;;;9.50;6.70;;;;;;;;;;5042772;28;20493;-86
2022/06/06 02:43:14;;;;;;;9.90;7.50;;;;;;;;;;5059755;28;20407;-87
2022/06/06 02:45:40;;;;;;;10.20;6.90;;;;;;;;;;5058565;28;20449;-87
2022/06/06 02:48:07;;;;;;;8.40;6.60;;;;;;;;;;5058796;28;20405;-87
2022/06/06 02:50:34;;;;;;;8.23;7.00;;;;;;;;;;5057869;28;20509;-87
2022/06/06 02:53:00;;;;;;;11.33;6.60;;;;;;;;;;5040289;28;20425;-85
2022/06/06 02:55:26;;;;;;;6.47;5.67;;;;;;;;;;5039583;28;20832;-87
2022/06/06 02:57:53;;;;;;;7.93;6.80;;;;;;;;;;5058328;28;20463;-87
2022/06/06 03:00:21;;;;;;;8.83;6.10;;;;;;;;;;5058087;28;20489;-85
2022/06/06 03:02:47;;;;;;;11.50;6.57;;;;;;;;;;5043992;28;20432;-87
2022/06/06 03:05:14;;;;;;;7.13;6.47;;;;;;;;;;5060451;28;20456;-87
2022/06/06 03:07:59;;;;;;;11.77;8.03;;;;;;;;;;5063489;28;20404;-87
2022/06/06 03:10:25;;;;;;;15.33;9.07;;;;;;;;;;5060142;28;20511;-87
2022/06/06 03:13:00;;;;;;;11.90;7.03;;;;;;;;;;5059943;28;20475;-87
2022/06/06 03:15:41;;;;;;;8.20;6.33;;;;;;;;;;5060294;28;20423;-87
2022/06/06 03:21:11;;;;;;;8.90;6.20;;;;;;;;;;5077473;28;20388;-87
2022/06/06 03:23:52;;;;;;;10.03;6.33;;;;;;;;;;5077342;28;20405;-86
2022/06/06 03:26:31;;;;;;;8.23;6.10;;;;;;;;;;5077285;28;20500;-87
2022/06/06 03:29:10;;;;;;;8.40;6.03;;;;;;;;;;5059728;28;20428;-87
2022/06/06 03:31:55;;;;;;;6.70;5.50;;;;;;;;;;5078311;28;20377;-84
2022/06/06 03:34:21;;;;;;;8.33;6.73;;;;;;;;;;5079148;28;20405;-86
2022/06/06 03:36:50;;;;;;;9.57;6.33;;;;;;;;;;5078479;28;20409;-85
2022/06/06 03:39:22;;;;;;;9.20;6.60;;;;;;;;;;5104113;22;20476;-87
2022/06/06 03:41:55;;;;;;;9.40;7.00;;;;;;;;;;5068668;28;20424;-87
2022/06/06 03:44:29;;;;;;;9.93;7.20;;;;;;;;;;5087559;28;20542;-87
2022/06/06 03:47:04;;;;;;;13.00;7.73;;;;;;;;;;5067251;28;20432;-87
2022/06/06 03:49:31;;;;;;;8.50;7.20;;;;;;;;;;5083172;28;20428;-87
2022/06/06 03:52:00;;;;;;;9.97;6.70;;;;;;;;;;5085274;28;20408;-87
2022/06/06 03:54:49;;;;;;;9.97;7.30;;;;;;;;;;5085253;28;20427;-87
2022/06/06 03:57:19;;;;;;;12.07;8.63;;;;;;;;;;5074786;28;20459;-88
2022/06/06 03:59:48;;;;;;;10.80;7.50;;;;;;;;;;5085213;28;20428;-87
2022/06/06 04:02:19;;;;;;;5.83;5.23;;;;;;;;;;5085696;28;20975;-87
2022/06/06 04:04:46;;;;;;;5.70;5.10;;;;;;;;;;5085040;28;20445;-88
2022/06/06 04:07:12;;;;;;;7.37;6.20;;;;;;;;;;5085489;28;20409;-87
2022/06/06 04:09:38;;;;;;;5.10;4.10;;;;;;;;;;5084453;28;20888;-87
2022/06/06 04:12:27;;;;;;;8.63;5.27;;;;;;;;;;5084744;28;20487;-87
2022/06/06 04:15:08;;;;;;;6.13;4.77;;;;;;;;;;5085199;28;20397;-87
2022/06/06 04:17:43;;;;;;;10.00;4.83;;;;;;;;;;5085387;28;20417;-87
2022/06/06 04:20:09;;;;;;;6.60;5.60;;;;;;;;;;5084409;28;20488;-87
2022/06/06 04:22:35;;;;;;;7.60;5.13;;;;;;;;;;5084689;28;20435;-87
2022/06/06 04:25:20;;;;;;;5.83;5.17;;;;;;;;;;5087356;28;20515;-87
2022/06/06 04:27:46;;;;;;;7.83;5.00;;;;;;;;;;5091486;28;20483;-87
2022/06/06 04:30:24;;;;;;;5.20;4.60;;;;;;;;;;5073408;28;20966;-86
2022/06/06 04:32:50;;;;;;;5.30;4.40;;;;;;;;;;5091724;28;20404;-87
2022/06/06 04:35:35;;;;;;;5.37;4.53;;;;;;;;;;5075384;28;20407;-86
2022/06/06 04:38:04;;;;;;;4.50;4.03;;;;;;;;;;5096200;28;20401;-87
2022/06/06 04:40:36;;;;;;;8.00;4.77;;;;;;;;;;5085902;28;20497;-87
2022/06/06 04:43:21;;;;;;;7.63;5.17;;;;;;;;;;5084413;28;20417;-87
2022/06/06 04:46:10;;;;;;;6.77;4.67;;;;;;;;;;5083825;28;20486;-87
2022/06/06 04:48:36;;;;;;;4.47;3.87;;;;;;;;;;5066345;28;20412;-88
2022/06/06 04:51:03;;;;;;;4.80;4.03;;;;;;;;;;5084226;28;20841;-87
2022/06/06 04:53:30;;;;;;;8.10;4.23;;;;;;;;;;5084829;28;20397;-88
2022/06/06 04:55:57;;;;;;;3.90;3.40;;;;;;;;;;5084039;28;20819;-87
2022/06/06 04:58:26;;;;;;;6.30;4.43;;;;;;;;;;5084651;28;20419;-87
2022/06/06 05:00:52;;;;;;;5.27;3.87;;;;;;;;;;5083922;28;20470;-88
2022/06/06 05:03:18;;;;;;;4.87;3.37;;;;;;;;;;5079312;28;20903;-87
2022/06/06 05:05:44;;;;;;;4.10;3.63;;;;;;;;;;5080444;28;20441;-86
2022/06/06 05:08:10;;;;;;;4.80;3.10;;;;;;;;;;5082024;28;20400;-87
2022/06/06 05:10:46;;;;;;;4.93;3.63;;;;;;;;;;5082315;28;20421;-87
2022/06/06 05:13:17;;;;;;;6.03;3.83;;;;;;;;;;5085231;28;20400;-85
2022/06/06 05:15:47;;;;;;;5.50;3.53;;;;;;;;;;5087589;28;20431;-85
2022/06/06 05:18:13;;;;;;;7.03;4.20;;;;;;;;;;5080666;28;20397;-86
2022/06/06 05:20:58;;;;;;;5.30;3.37;;;;;;;;;;5081955;28;20422;-86
2022/06/06 05:23:36;;;;;;;5.30;3.87;;;;;;;;;;5082757;28;20468;-85
2022/06/06 05:26:20;;;;;;;3.40;3.10;;;;;;;;;;5091693;28;20437;-86
2022/06/06 05:28:58;;;;;;;5.63;3.40;;;;;;;;;;5087973;28;20400;-87
2022/06/06 05:31:30;;;;;;;4.10;3.43;;;;;;;;;;5083396;28;20774;-87
2022/06/06 05:34:13;;;;;;;8.93;5.30;;;;;;;;;;5082398;28;20397;-88
2022/06/06 05:36:46;;;;;;;4.43;3.80;;;;;;;;;;5084857;28;20381;-86
2022/06/06 05:39:24;;;;;;;4.57;3.57;;;;;;;;;;5084227;28;20417;-86
2022/06/06 05:42:05;;;;;;;3.97;3.07;;;;;;;;;;5086133;28;20446;-86
2022/06/06 05:44:58;;;;;;;3.97;3.60;;;;;;;;;;5066368;28;20456;-87
2022/06/06 05:47:36;;;;;;;3.40;3.10;;;;;;;;;;5051648;28;20483;-86
2022/06/06 05:50:14;;;;;;;4.50;2.77;;;;;;;;;;5084329;28;20809;-86
2022/06/06 05:52:46;;;;;;;3.23;2.37;;;;;;;;;;5085262;28;20427;-88
2022/06/06 05:55:23;;;;;;;3.03;2.73;;;;;;;;;;5083212;28;20419;-88
2022/06/06 05:57:59;;;;;;;5.67;2.60;;;;;;;;;;5082888;28;20409;-88
2022/06/06 06:00:37;;;;;;;3.30;2.50;;;;;;;;;;5083125;28;20507;-88
2022/06/06 06:03:08;;;;;;;7.90;2.30;;;;;;;;;;5092436;28;20404;-87
2022/06/06 06:09:22;;;;;;;2.67;2.37;;;;;;;;;;5001902;28;20468;-88
2022/06/06 06:12:07;;;;;;;3.73;2.90;;;;;;;;;;5019734;28;20440;-87
2022/06/06 06:14:36;;;;;;;4.37;2.40;;;;;;;;;;5080953;28;20381;-87
2022/06/06 06:17:03;;;;;;;4.13;3.00;;;;;;;;;;5081012;28;20492;-88
2022/06/06 06:19:36;;;;;;;6.13;2.37;;;;;;;;;;5080325;28;20424;-88
2022/06/06 06:22:03;;;;;;;2.73;2.50;;;;;;;;;;5081155;28;20397;-87
2022/06/06 06:24:31;;;;;;;5.00;2.70;;;;;;;;;;5064046;28;20464;-88
2022/06/06 06:26:58;;;;;;;4.70;2.50;;;;;;;;;;5084869;28;20474;-85
2022/06/06 06:29:25;;;;;;;5.50;2.63;;;;;;;;;;5082665;28;20425;-88
2022/06/06 06:32:00;;;;;;;2.73;2.00;;;;;;;;;;5065849;28;20408;-88
2022/06/06 06:34:29;;;;;;;3.30;2.70;;;;;;;;;;5083303;28;20866;-86
2022/06/06 06:37:10;;;;;;;2.40;1.90;;;;;;;;;;5086261;28;20446;-86
2022/06/06 06:39:55;;;;;;;3.37;2.47;;;;;;;;;;5083294;28;20456;-85
2022/06/06 06:42:29;;;;;;;4.53;2.40;;;;;;;;;;5075387;28;20401;-83
2022/06/06 06:45:08;;;;;;;3.70;2.57;;;;;;;;;;5057264;28;20503;-85
2022/06/06 06:47:35;;;;;;;3.87;2.13;;;;;;;;;;5078605;28;20868;-85
2022/06/06 06:50:22;;;;;;;7.17;3.00;;;;;;;;;;5079992;28;20421;-85
2022/06/06 06:53:04;;;;;;;3.63;2.70;;;;;;;;;;5080755;28;20400;-86
2022/06/06 06:55:36;;;;;;;4.50;2.43;;;;;;;;;;5080695;28;20409;-86
2022/06/06 06:58:30;;;;;;;4.53;2.20;;;;;;;;;;5082518;28;20486;-85
2022/06/06 07:01:02;;;;;;;4.57;2.30;;;;;;;;;;5064208;28;20424;-86
2022/06/06 07:08:32;;;;;;;3.77;2.83;;;;;;;;;;5083451;28;20388;-85
2022/06/06 07:09:31;;;;;;;3.93;2.50;;;;;;;;;;5092210;28;20425;-85
2022/06/06 07:12:09;;;;;;;4.87;3.27;;;;;;;;;;5065476;28;20944;-85
2022/06/06 07:14:54;;;;;;;3.80;2.57;;;;;;;;;;5083061;28;20433;-86
2022/06/06 07:17:21;;;;;;;4.77;2.80;;;;;;;;;;5081859;28;20397;-88
2022/06/06 07:19:55;;;;;;;5.10;2.97;;;;;;;;;;5080779;28;20420;-88
2022/06/06 07:22:21;;;;;;;2.90;2.50;;;;;;;;;;5081005;28;20388;-88
2022/06/06 07:24:49;;;;;;;3.73;2.73;;;;;;;;;;5085702;28;20516;-88
2022/06/06 07:27:15;;;;;;;4.50;2.70;;;;;;;;;;5085085;28;20455;-88
2022/06/06 07:29:41;;;;;;;4.33;2.37;;;;;;;;;;5084310;28;20420;-88
2022/06/06 07:32:10;;;;;;;4.00;2.33;;;;;;;;;;5066440;28;20909;-87
2022/06/06 07:34:55;;;;;;;6.73;2.70;;;;;;;;;;5084074;28;20404;-89
2022/06/06 07:37:30;;;;;;;7.80;3.30;;;;;;;;;;5066607;28;20404;-88
2022/06/06 07:40:05;;;;;;;3.20;2.67;;;;;;;;;;5066965;28;20509;-85
2022/06/06 07:42:43;;;;;;;4.63;2.60;;;;;;;;;;5067319;28;20415;-88
2022/06/06 07:45:17;;;;;;;3.73;2.33;;;;;;;;;;5085286;28;20963;-85
2022/06/06 07:47:46;;;;;;;4.60;2.93;;;;;;;;;;5084580;28;20412;-87
2022/06/06 07:50:12;;;;;;;5.07;2.47;;;;;;;;;;5085052;28;20424;-88
2022/06/06 07:52:41;;;;;;;4.47;2.57;;;;;;;;;;5084829;28;20397;-87
2022/06/06 07:55:17;;;;;;;4.83;2.80;;;;;;;;;;5084524;28;20896;-87
2022/06/06 07:57:49;;;;;;;4.10;2.57;;;;;;;;;;5085443;28;20490;-86
2022/06/06 08:00:25;;;;;;;3.87;2.73;;;;;;;;;;5067028;28;20432;-87
2022/06/06 08:02:51;;;;;;;4.37;2.77;;;;;;;;;;5085271;28;20408;-87
2022/06/06 08:05:36;;;;;;;2.93;2.60;;;;;;;;;;5083075;28;20456;-86
2022/06/06 08:08:09;;;;;;;3.10;2.50;;;;;;;;;;5088095;28;20384;-86
2022/06/06 08:10:41;;;;;;;3.20;2.53;;;;;;;;;;5086810;28;20412;-86
2022/06/06 08:13:22;;;;;;;5.20;3.30;;;;;;;;;;5084484;28;20443;-87
2022/06/06 08:15:57;;;;;;;3.70;2.80;;;;;;;;;;5066775;28;20512;-87
2022/06/06 08:18:36;;;;;;;5.50;2.87;;;;;;;;;;5084015;28;20393;-86
2022/06/06 08:21:02;;;;;;;3.43;2.70;;;;;;;;;;5084515;28;20428;-86
2022/06/06 08:23:32;;;;;;;4.50;3.10;;;;;;;;;;5084944;28;20401;-87
2022/06/06 08:25:59;;;;;;;4.17;2.80;;;;;;;;;;5085748;28;20381;-87
2022/06/06 08:28:26;;;;;;;4.20;2.63;;;;;;;;;;5067644;28;20393;-87
2022/06/06 08:30:52;;;;;;;2.50;1.93;;;;;;;;;;5084146;28;20428;-87
2022/06/06 08:33:18;;;;;;;3.10;2.53;;;;;;;;;;5083007;28;20389;-87
2022/06/06 08:35:50;;;;;;;4.43;2.77;;;;;;;;;;5064277;28;20413;-87
2022/06/06 08:38:31;;;;;;;3.53;2.80;;;;;;;;;;5083421;28;20444;-86
2022/06/06 08:41:16;;;;;;;5.10;3.17;;;;;;;;;;5065063;28;20932;-87
2022/06/06 08:44:01;;;;;;;11.37;3.37;;;;;;;;;;5082333;28;20409;-87
2022/06/06 08:46:30;;;;;;;3.27;2.83;;;;;;;;;;5083529;28;20400;-87
2022/06/06 08:49:03;;;;;;;3.00;2.70;;;;;;;;;;5082661;28;20433;-88
2022/06/06 08:51:48;;;;;;;4.50;2.80;;;;;;;;;;5082527;28;20739;-87
2022/06/06 08:54:33;;;;;;;7.07;3.30;;;;;;;;;;5082773;28;20494;-87
2022/06/06 08:58:04;;;;;;;3.17;2.30;;;;;;;;;;5131090;22;20405;-87
2022/06/06 09:00:16;;;;;;;3.70;2.67;;;;;;;;;;5044650;28;20466;-88
2022/06/06 09:03:00;;;;;;;5.10;2.93;;;;;;;;;;5218212;22;20546;-87
2022/06/06 09:05:41;;;;;;;3.93;2.57;;;;;;;;;;5066055;28;21014;-88
2022/06/06 09:08:32;;;;;;;4.23;2.83;;;;;;;;;;5064075;28;20393;-88
2022/06/06 09:10:58;;;;;;;10.33;3.40;;;;;;;;;;5064800;28;20414;-87
2022/06/06 09:13:53;;;;;;;2.83;2.10;;;;;;;;;;5064727;28;20448;-89
2022/06/06 09:16:22;;;;;;;3.67;2.20;;;;;;;;;;5011190;28;20479;-89
2022/06/06 09:18:55;;;;;;;4.00;2.80;;;;;;;;;;5064779;28;20821;-89
2022/06/06 09:21:27;;;;;;;5.17;3.00;;;;;;;;;;5064142;28;20891;-88
2022/06/06 09:24:03;;;;;;;10.00;2.50;;;;;;;;;;5046099;28;20770;-89
2022/06/06 09:26:29;;;;;;;6.63;2.10;;;;;;;;;;5064474;28;20400;-88
2022/06/06 09:28:58;;;;;;;5.53;2.60;;;;;;;;;;5064909;28;20933;-88
2022/06/06 09:31:36;;;;;;;3.90;2.77;;;;;;;;;;5064961;28;20416;-89
2022/06/06 09:34:26;;;;;;;4.23;2.80;;;;;;;;;;5064920;28;20461;-88
2022/06/06 09:37:11;;;;;;;4.40;2.97;;;;;;;;;;5064715;28;20398;-88
2022/06/06 09:39:40;;;;;;;7.53;2.60;;;;;;;;;;5080402;22;20401;-86
2022/06/06 09:42:25;;;;;;;3.30;2.40;;;;;;;;;;5052864;28;20952;-84
2022/06/06 09:44:51;;;;;;;8.40;2.37;;;;;;;;;;5060731;28;20448;-86
2022/06/06 09:47:29;;;;;;;3.10;2.30;;;;;;;;;;5059981;28;20437;-86
2022/06/06 09:50:14;;;;;;;2.87;2.30;;;;;;;;;;5044001;28;20765;-85
2022/06/06 09:52:58;;;;;;;5.23;2.80;;;;;;;;;;5041856;28;20405;-86
2022/06/06 10:01:11;;;;;;;2.97;2.67;;;;;;;;;;5059172;28;20425;-87
2022/06/06 10:03:50;;;;;;;5.60;2.97;;;;;;;;;;5042000;28;20416;-87
2022/06/06 10:06:19;;;;;;;3.90;2.73;;;;;;;;;;5059530;28;20414;-87
2022/06/06 10:08:51;;;;;;;4.73;2.40;;;;;;;;;;5058912;28;20904;-86
2022/06/06 10:11:40;;;;;;;3.90;2.43;;;;;;;;;;5058962;28;20456;-85
2022/06/06 10:14:15;;;;;;;3.63;3.03;;;;;;;;;;5058837;28;20417;-85
2022/06/06 10:16:41;;;;;;;4.70;3.20;;;;;;;;;;5041573;28;20424;-87
2022/06/06 10:19:26;;;;;;;3.50;2.50;;;;;;;;;;5059597;28;20425;-85
2022/06/06 10:22:11;;;;;;;7.00;2.63;;;;;;;;;;5059457;28;20744;-85
2022/06/06 10:24:52;;;;;;;4.17;2.87;;;;;;;;;;5042462;28;20453;-86
2022/06/06 10:27:31;;;;;;;5.80;2.70;;;;;;;;;;5060734;28;20405;-87
2022/06/06 10:30:13;;;;;;;3.17;2.87;;;;;;;;;;5060018;28;20449;-84
2022/06/06 10:32:58;;;;;;;4.67;2.60;;;;;;;;;;5060560;28;20453;-85
2022/06/06 10:35:39;;;;;;;4.63;2.40;;;;;;;;;;5042581;28;20405;-85
2022/06/06 10:38:24;;;;;;;6.27;2.30;;;;;;;;;;5043532;28;20417;-86
2022/06/06 10:41:08;;;;;;;3.97;2.80;;;;;;;;;;5064860;28;20444;-85
2022/06/06 10:43:41;;;;;;;3.93;2.30;;;;;;;;;;5071855;28;20449;-84
2022/06/06 10:46:10;;;;;;;4.70;2.70;;;;;;;;;;5040474;28;20421;-84
2022/06/06 10:48:39;;;;;;;3.57;2.57;;;;;;;;;;5059062;28;20416;-86
2022/06/06 10:51:37;;;;;;;3.33;2.17;;;;;;;;;;5040079;28;20921;-85
2022/06/06 10:54:06;;;;;;;4.43;2.87;;;;;;;;;;5058313;28;20514;-87
2022/06/06 10:56:35;;;;;;;3.50;2.63;;;;;;;;;;5040247;28;20405;-85
2022/06/06 10:59:19;;;;;;;4.63;2.33;;;;;;;;;;5058031;28;20405;-85
2022/06/06 11:02:03;;;;;;;3.63;2.00;;;;;;;;;;5040537;28;20905;-83
2022/06/06 11:04:29;;;;;;;4.23;2.70;;;;;;;;;;5039688;28;20449;-84
2022/06/06 11:07:14;;;;;;;4.67;2.00;;;;;;;;;;5056217;28;20483;-83
2022/06/06 11:09:40;;;;;;;2.80;2.13;;;;;;;;;;5056388;28;20413;-83
2022/06/06 11:12:09;;;;;;;2.60;2.30;;;;;;;;;;5039410;28;20424;-84
2022/06/06 11:14:36;;;;;;;3.50;2.50;;;;;;;;;;5039054;28;20450;-84
2022/06/06 11:17:18;;;;;;;3.27;2.50;;;;;;;;;;5040649;28;20783;-86
2022/06/06 11:19:47;;;;;;;2.80;2.20;;;;;;;;;;5039931;28;20453;-86
2022/06/06 11:22:13;;;;;;;4.10;2.10;;;;;;;;;;5040836;28;20496;-86
2022/06/06 11:24:42;;;;;;;3.00;2.20;;;;;;;;;;5041504;28;20492;-86
2022/06/06 11:27:11;;;;;;;5.13;2.57;;;;;;;;;;5041277;28;20408;-85
2022/06/06 11:29:56;;;;;;;4.27;2.20;;;;;;;;;;5059475;28;20483;-85
2022/06/06 11:32:35;;;;;;;4.67;2.77;;;;;;;;;;5059049;28;20893;-87
2022/06/06 11:35:24;;;;;;;3.50;2.40;;;;;;;;;;5059151;28;20890;-86
2022/06/06 11:38:08;;;;;;;2.80;2.33;;;;;;;;;;5040009;28;20405;-87
2022/06/06 11:40:54;;;;;;;3.50;2.57;;;;;;;;;;5040281;28;20448;-85
2022/06/06 11:43:38;;;;;;;2.97;2.17;;;;;;;;;;5058592;28;20765;-86
2022/06/06 11:46:25;;;;;;;4.73;2.10;;;;;;;;;;5040428;28;20448;-86
2022/06/06 11:48:54;;;;;;;3.10;2.07;;;;;;;;;;5062956;28;20398;-86
2022/06/06 11:51:20;;;;;;;6.50;3.10;;;;;;;;;;5064965;28;20516;-86
2022/06/06 11:54:08;;;;;;;3.90;2.80;;;;;;;;;;5044475;28;20471;-86
2022/06/06 11:56:36;;;;;;;4.87;2.70;;;;;;;;;;5041392;28;20404;-87
2022/06/06 11:59:14;;;;;;;3.30;2.77;;;;;;;;;;5058970;28;20417;-86
2022/06/06 12:01:59;;;;;;;6.20;3.07;;;;;;;;;;5060070;28;20944;-86
2022/06/06 12:04:51;;;;;;;6.90;2.57;;;;;;;;;;5041333;28;20461;-86
2022/06/06 12:07:20;;;;;;;3.50;3.20;;;;;;;;;;5018187;28;20421;-86
2022/06/06 12:09:52;;;;;;;5.03;3.00;;;;;;;;;;5059280;28;20451;-86
2022/06/06 12:12:25;;;;;;;6.57;2.87;;;;;;;;;;5063187;28;20398;-85
2022/06/06 12:15:09;;;;;;;3.07;2.27;;;;;;;;;;5064005;28;20444;-86
2022/06/06 12:17:44;;;;;;;3.33;2.50;;;;;;;;;;5058916;28;20409;-85
2022/06/06 12:20:11;;;;;;;5.73;2.80;;;;;;;;;;5057066;28;20429;-86
2022/06/06 12:22:55;;;;;;;6.90;2.73;;;;;;;;;;5043954;28;20409;-86
2022/06/06 12:25:24;;;;;;;2.90;2.40;;;;;;;;;;5043704;28;20457;-86
2022/06/06 12:27:58;;;;;;;3.03;2.07;;;;;;;;;;5061928;28;20414;-86
2022/06/06 12:30:33;;;;;;;3.87;2.33;;;;;;;;;;5062177;28;20487;-85
2022/06/06 12:33:02;;;;;;;3.53;2.97;;;;;;;;;;5061825;28;20511;-85
2022/06/06 12:35:47;;;;;;;4.40;2.40;;;;;;;;;;5061518;28;20484;-84
2022/06/06 12:38:19;;;;;;;4.43;2.30;;;;;;;;;;5061878;28;20405;-85
2022/06/06 12:40:51;;;;;;;2.90;2.37;;;;;;;;;;5061734;28;20451;-85
2022/06/06 12:43:17;;;;;;;3.47;2.17;;;;;;;;;;5062905;28;20401;-83
2022/06/06 12:46:01;;;;;;;3.30;2.13;;;;;;;;;;5061467;28;20456;-83
2022/06/06 12:48:46;;;;;;;6.67;2.20;;;;;;;;;;5062329;28;20397;-85
2022/06/06 12:51:32;;;;;;;2.83;2.50;;;;;;;;;;5062630;28;20422;-85
2022/06/06 12:54:04;;;;;;;3.83;2.50;;;;;;;;;;5044269;28;20422;-86
2022/06/06 12:56:37;;;;;;;3.27;1.90;;;;;;;;;;5061284;28;20452;-86
2022/06/06 12:59:19;;;;;;;5.93;2.57;;;;;;;;;;5061906;28;20477;-86
2022/06/06 13:02:04;;;;;;;2.70;2.03;;;;;;;;;;5043141;28;20406;-85
2022/06/06 13:04:30;;;;;;;6.80;2.27;;;;;;;;;;5060320;28;20817;-84
2022/06/06 13:07:02;;;;;;;4.13;2.20;;;;;;;;;;5042970;28;20481;-86
2022/06/06 13:09:43;;;;;;;4.23;3.33;;;;;;;;;;5042931;28;20999;-85
2022/06/06 13:12:25;;;;;;;3.00;2.33;;;;;;;;;;5060664;28;20401;-85
2022/06/06 13:15:09;;;;;;;2.37;2.00;;;;;;;;;;5060722;28;20409;-85
2022/06/06 13:17:40;;;;;;;2.27;1.80;;;;;;;;;;5060202;28;20402;-86
2022/06/06 13:20:22;;;;;;;2.97;2.20;;;;;;;;;;5060802;28;20417;-85
2022/06/06 13:23:07;;;;;;;3.40;2.53;;;;;;;;;;5060158;28;20405;-85
2022/06/06 13:25:48;;;;;;;4.80;2.70;;;;;;;;;;5041689;28;20456;-85
2022/06/06 13:28:25;;;;;;;4.10;1.97;;;;;;;;;;5043405;28;20405;-85
2022/06/06 13:30:51;;;;;;;5.40;2.00;;;;;;;;;;5042276;28;20441;-86
2022/06/06 13:33:33;;;;;;;5.60;2.30;;;;;;;;;;5059978;28;20405;-85
2022/06/06 13:36:02;;;;;;;2.83;1.60;;;;;;;;;;5059677;28;20417;-85
2022/06/06 13:38:36;;;;;;;2.60;1.87;;;;;;;;;;5060775;28;20973;-85
2022/06/06 13:41:20;;;;;;;3.93;1.90;;;;;;;;;;5042609;28;20532;-85
2022/06/06 13:43:55;;;;;;;3.17;2.10;;;;;;;;;;5060762;28;20448;-84
2022/06/06 13:46:44;;;;;;;2.83;2.00;;;;;;;;;;5042976;28;20413;-86
2022/06/06 13:49:13;;;;;;;6.37;2.03;;;;;;;;;;5034040;28;20868;-85
2022/06/06 13:51:57;;;;;;;2.70;1.77;;;;;;;;;;5066595;28;20449;-85
2022/06/06 13:54:33;;;;;;;3.13;1.50;;;;;;;;;;5043300;28;20492;-85
2022/06/06 13:57:18;;;;;;;2.47;1.77;;;;;;;;;;5060757;28;20393;-84
2022/06/06 14:00:02;;;;;;;2.40;1.80;;;;;;;;;;5060541;28;20418;-84
2022/06/06 14:02:37;;;;;;;2.50;1.70;;;;;;;;;;5059751;28;20394;-85
2022/06/06 14:05:15;;;;;;;2.67;1.70;;;;;;;;;;5040992;28;20492;-86
2022/06/06 14:08:04;;;;;;;3.10;1.80;;;;;;;;;;5059476;28;20401;-86
2022/06/06 14:10:43;;;;;;;3.30;1.80;;;;;;;;;;5051240;28;20433;-87
2022/06/06 14:13:28;;;;;;;3.93;2.13;;;;;;;;;;5041553;28;20394;-86
2022/06/06 14:15:56;;;;;;;2.70;1.70;;;;;;;;;;5060047;28;20883;-86
2022/06/06 14:18:29;;;;;;;3.47;1.93;;;;;;;;;;5043480;28;20410;-87
2022/06/06 14:21:00;;;;;;;3.37;1.87;;;;;;;;;;5061454;28;20413;-86
2022/06/06 14:23:28;;;;;;;2.30;1.57;;;;;;;;;;5062247;28;20406;-87
2022/06/06 14:25:58;;;;;;;2.37;1.90;;;;;;;;;;5060064;28;20445;-87
2022/06/06 14:28:29;;;;;;;2.77;2.23;;;;;;;;;;5042791;28;20444;-87
2022/06/06 14:30:56;;;;;;;2.00;1.60;;;;;;;;;;5059707;28;20417;-86
2022/06/06 14:33:24;;;;;;;3.30;1.80;;;;;;;;;;5058774;28;20409;-87
2022/06/06 14:35:50;;;;;;;8.50;2.67;;;;;;;;;;5059570;28;20453;-86
2022/06/06 14:38:16;;;;;;;3.13;2.00;;;;;;;;;;5040475;28;20465;-85
2022/06/06 14:40:45;;;;;;;4.90;2.30;;;;;;;;;;5055074;28;20440;-85
2022/06/06 14:43:12;;;;;;;3.13;1.70;;;;;;;;;;5056773;28;20770;-85
2022/06/06 14:45:39;;;;;;;3.07;1.57;;;;;;;;;;5039407;28;20413;-84
2022/06/06 14:48:16;;;;;;;3.37;1.90;;;;;;;;;;5058457;28;20420;-85
2022/06/06 14:50:59;;;;;;;3.17;1.77;;;;;;;;;;5058593;28;20833;-85
2022/06/06 14:53:32;;;;;;;4.57;1.73;;;;;;;;;;5058245;28;20405;-86
2022/06/06 14:56:02;;;;;;;3.63;1.70;;;;;;;;;;5058252;28;20520;-86
2022/06/06 14:58:30;;;;;;;3.73;1.77;;;;;;;;;;5042051;28;20437;-87
2022/06/06 15:01:01;;;;;;;2.20;1.50;;;;;;;;;;5041523;28;20490;-87
2022/06/06 15:03:39;;;;;;;6.53;1.70;;;;;;;;;;5042090;28;20410;-87
2022/06/06 15:06:08;;;;;;;3.30;1.77;;;;;;;;;;5061282;28;20404;-87
2022/06/06 15:08:37;;;;;;;3.63;1.80;;;;;;;;;;5042509;28;20413;-87
2022/06/06 15:11:07;;;;;;;2.57;1.63;;;;;;;;;;5058746;28;20497;-87
2022/06/06 15:13:35;;;;;;;2.00;1.50;;;;;;;;;;5059601;28;20478;-86
2022/06/06 15:16:03;;;;;;;5.87;1.73;;;;;;;;;;5041932;28;20511;-87
2022/06/06 15:18:35;;;;;;;2.23;1.60;;;;;;;;;;5059737;28;20405;-86
2022/06/06 15:21:02;;;;;;;2.83;1.50;;;;;;;;;;5041293;28;21013;-86
2022/06/06 15:23:47;;;;;;;3.17;1.87;;;;;;;;;;5041636;28;20416;-85
2022/06/06 15:26:31;;;;;;;2.90;1.73;;;;;;;;;;5059878;28;20469;-86
2022/06/06 15:29:16;;;;;;;4.27;1.70;;;;;;;;;;5041307;28;20508;-86
2022/06/06 15:31:45;;;;;;;3.83;1.87;;;;;;;;;;5047939;28;20448;-85
2022/06/06 15:34:11;;;;;;;3.10;1.83;;;;;;;;;;5059074;28;20445;-86
2022/06/06 15:36:45;;;;;;;4.23;1.80;;;;;;;;;;5064961;28;20413;-87
2022/06/06 15:39:14;;;;;;;2.73;1.70;;;;;;;;;;5053006;28;20422;-86
2022/06/06 15:41:45;;;;;;;3.33;1.60;;;;;;;;;;5054749;23;20487;-87